createdAt,value
2023-05-03T00:00:21.245Z,82.59
2023-05-03T00:01:23.795Z,82.88
2023-05-03T00:02:25.829Z,83.79
2023-05-03T00:03:29.141Z,83.83
2023-05-03T00:04:31.874Z,82.81
2023-05-03T00:05:33.923Z,82.09
2023-05-03T00:06:36.195Z,82.85
2023-05-03T00:07:39.510Z,84.07
2023-05-03T00:08:42.211Z,82.63
2023-05-03T00:09:44.236Z,81.95
2023-05-03T00:10:46.076Z,81.89
2023-05-03T00:11:48.307Z,81.50
2023-05-03T00:12:50.364Z,82.55
2023-05-03T00:13:52.304Z,83.12
2023-05-03T00:14:54.102Z,83.25
2023-05-03T00:15:56.010Z,84.18
2023-05-03T00:16:58.136Z,83.40
2023-05-03T00:18:00.236Z,81.66
2023-05-03T00:19:02.602Z,82.53
2023-05-03T00:20:05.665Z,82.67
2023-05-03T00:21:07.670Z,81.75
2023-05-03T00:22:09.906Z,82.74
2023-05-03T00:23:11.723Z,83.03
2023-05-03T00:24:13.694Z,82.41
2023-05-03T00:25:15.860Z,81.57
2023-05-03T00:26:17.753Z,81.04
2023-05-03T00:27:20.159Z,80.46
2023-05-03T00:28:22.781Z,80.17
2023-05-03T00:29:24.613Z,81.11
2023-05-03T00:30:26.457Z,80.95
2023-05-03T00:31:28.323Z,79.90
2023-05-03T00:32:30.592Z,81.17
2023-05-03T00:33:32.477Z,81.11
2023-05-03T00:34:34.389Z,81.16
2023-05-03T00:35:36.631Z,82.04
2023-05-03T00:36:38.469Z,82.68
2023-05-03T00:37:41.204Z,82.48
2023-05-03T00:38:43.351Z,82.46
2023-05-03T00:39:45.242Z,83.01
2023-05-03T00:40:54.050Z,83.35
2023-05-03T00:41:59.779Z,83.12
2023-05-03T00:43:02.538Z,82.79
2023-05-03T00:44:04.570Z,83.00
2023-05-03T00:45:06.933Z,82.37
2023-05-03T00:46:16.889Z,82.44
2023-05-03T00:47:19.666Z,81.93
2023-05-03T00:48:22.184Z,82.60
2023-05-03T00:49:27.141Z,81.84
2023-05-03T00:50:29.912Z,82.72
2023-05-03T00:51:32.007Z,82.35
2023-05-03T00:52:34.773Z,82.02
2023-05-03T00:53:37.075Z,81.40
2023-05-03T00:54:39.761Z,81.50
2023-05-03T00:55:42.222Z,82.02
2023-05-03T00:56:51.001Z,81.38
2023-05-03T00:57:53.619Z,81.85
2023-05-03T00:58:55.805Z,83.11
2023-05-03T00:59:59.141Z,82.31
2023-05-03T01:01:02.176Z,82.51
2023-05-03T01:02:04.543Z,82.12
2023-05-03T01:03:06.857Z,82.19
2023-05-03T01:04:09.236Z,81.73
2023-05-03T01:05:11.723Z,81.91
2023-05-03T01:06:18.182Z,83.22
2023-05-03T01:07:58.345Z,83.88
2023-05-03T01:09:24.901Z,83.18
2023-05-03T01:10:39.586Z,83.24
2023-05-03T01:12:20.498Z,83.46
2023-05-03T01:13:29.578Z,83.97
2023-05-03T01:14:37.402Z,84.13
2023-05-03T01:15:49.652Z,83.99
2023-05-03T01:16:56.819Z,83.40
2023-05-03T01:18:09.115Z,82.93
2023-05-03T01:19:36.059Z,83.66
2023-05-03T01:20:38.567Z,82.26
2023-05-03T01:21:47.790Z,83.43
2023-05-03T01:23:32.719Z,83.22
2023-05-03T01:24:37.469Z,83.21
2023-05-03T01:25:39.380Z,83.47
2023-05-03T01:26:41.504Z,82.82
2023-05-03T01:27:43.661Z,83.37
2023-05-03T01:28:45.593Z,84.30
2023-05-03T01:29:47.452Z,84.62
2023-05-03T01:30:52.552Z,84.25
2023-05-03T01:32:01.384Z,83.88
2023-05-03T01:33:33.604Z,84.30
2023-05-03T01:34:43.154Z,85.07
2023-05-03T01:35:52.885Z,84.63
2023-05-03T01:36:59.740Z,84.63
2023-05-03T01:38:02.766Z,83.97
2023-05-03T01:39:09.583Z,83.00
2023-05-03T01:40:16.863Z,83.31
2023-05-03T01:41:21.480Z,83.60
2023-05-03T01:42:25.392Z,83.12
2023-05-03T01:43:31.416Z,83.47
2023-05-03T01:44:34.985Z,83.25
2023-05-03T01:45:37.019Z,83.31
2023-05-03T01:46:45.974Z,84.07
2023-05-03T01:47:48.184Z,83.45
2023-05-03T01:48:50.287Z,84.50
2023-05-03T01:49:52.169Z,84.33
2023-05-03T01:50:54.008Z,84.31
2023-05-03T01:51:55.962Z,84.20
2023-05-03T01:52:58.184Z,84.34
2023-05-03T01:54:00.085Z,84.30
2023-05-03T01:55:02.049Z,84.56
2023-05-03T01:56:04.118Z,84.84
2023-05-03T01:57:08.009Z,85.39
2023-05-03T01:58:10.172Z,85.48
2023-05-03T01:59:12.052Z,85.08
2023-05-03T02:00:14.535Z,84.79
2023-05-03T02:01:16.265Z,84.74
2023-05-03T02:02:18.437Z,85.07
2023-05-03T02:03:20.887Z,85.14
2023-05-03T02:04:22.775Z,85.40
2023-05-03T02:05:25.967Z,85.31
2023-05-03T02:06:29.163Z,84.79
2023-05-03T02:07:33.421Z,84.63
2023-05-03T02:08:35.553Z,85.42
2023-05-03T02:09:37.401Z,85.67
2023-05-03T02:10:39.237Z,86.52
2023-05-03T02:11:41.254Z,87.05
2023-05-03T02:12:46.518Z,87.36
2023-05-03T02:13:50.733Z,86.69
2023-05-03T02:14:52.858Z,86.24
2023-05-03T02:15:55.580Z,86.28
2023-05-03T02:16:58.116Z,85.50
2023-05-03T02:18:02.584Z,85.96
2023-05-03T02:19:05.561Z,86.56
2023-05-03T02:20:12.592Z,86.75
2023-05-03T02:21:14.672Z,87.08
2023-05-03T02:22:16.511Z,87.31
2023-05-03T02:23:18.444Z,87.42
2023-05-03T02:24:20.334Z,87.72
2023-05-03T02:25:24.718Z,87.93
2023-05-03T02:26:27.669Z,87.67
2023-05-03T02:27:29.538Z,87.06
2023-05-03T02:28:31.368Z,86.25
2023-05-03T02:29:33.234Z,86.62
2023-05-03T02:30:36.800Z,86.86
2023-05-03T02:31:38.657Z,86.36
2023-05-03T02:32:41.264Z,85.72
2023-05-03T02:33:43.764Z,86.13
2023-05-03T02:34:48.769Z,85.27
2023-05-03T02:35:51.680Z,85.02
2023-05-03T02:36:53.727Z,85.00
2023-05-03T02:37:56.283Z,85.62
2023-05-03T02:38:58.619Z,84.69
2023-05-03T02:40:00.983Z,84.75
2023-05-03T02:41:03.714Z,86.16
2023-05-03T02:42:05.996Z,86.04
2023-05-03T02:43:07.964Z,86.22
2023-05-03T02:44:09.815Z,86.93
2023-05-03T02:45:11.778Z,86.74
2023-05-03T02:46:14.294Z,86.04
2023-05-03T02:47:16.238Z,85.87
2023-05-03T02:48:18.739Z,86.03
2023-05-03T02:49:20.774Z,85.98
2023-05-03T02:50:22.709Z,85.78
2023-05-03T02:51:24.924Z,83.87
2023-05-03T02:52:26.779Z,83.13
2023-05-03T02:53:28.786Z,83.07
2023-05-03T02:54:31.545Z,83.46
2023-05-03T02:55:34.447Z,83.47
2023-05-03T02:56:36.849Z,84.20
2023-05-03T02:57:40.458Z,83.60
2023-05-03T02:58:44.421Z,82.90
2023-05-03T02:59:46.248Z,83.68
2023-05-03T03:00:48.324Z,84.38
2023-05-03T03:01:50.844Z,85.04
2023-05-03T03:02:52.807Z,85.57
2023-05-03T03:03:56.084Z,85.58
2023-05-03T03:04:57.965Z,86.71
2023-05-03T03:05:59.869Z,83.96
2023-05-03T03:07:03.436Z,82.91
2023-05-03T03:08:05.659Z,82.81
2023-05-03T03:09:07.587Z,82.14
2023-05-03T03:10:10.621Z,81.44
2023-05-03T03:11:13.042Z,81.70
2023-05-03T03:12:15.507Z,80.78
2023-05-03T03:13:17.454Z,81.33
2023-05-03T03:14:19.437Z,80.91
2023-05-03T03:15:21.383Z,81.01
2023-05-03T03:16:23.277Z,80.36
2023-05-03T03:17:26.179Z,79.35
2023-05-03T03:18:28.488Z,80.08
2023-05-03T03:19:30.789Z,81.19
2023-05-03T03:20:32.620Z,81.21
2023-05-03T03:21:36.048Z,81.13
2023-05-03T03:22:41.223Z,81.42
2023-05-03T03:23:43.072Z,81.03
2023-05-03T03:24:45.775Z,80.58
2023-05-03T03:25:48.188Z,79.94
2023-05-03T03:26:50.418Z,81.07
2023-05-03T03:27:53.253Z,79.88
2023-05-03T03:28:55.243Z,79.88
2023-05-03T03:29:57.622Z,79.96
2023-05-03T03:31:00.126Z,80.25
2023-05-03T03:32:02.265Z,81.09
2023-05-03T03:33:04.888Z,80.89
2023-05-03T03:34:07.432Z,81.42
2023-05-03T03:35:10.492Z,80.74
2023-05-03T03:36:12.333Z,80.90
2023-05-03T03:37:14.881Z,81.08
2023-05-03T03:38:17.088Z,80.49
2023-05-03T03:39:19.299Z,80.97
2023-05-03T03:40:22.904Z,81.33
2023-05-03T03:41:26.292Z,81.07
2023-05-03T03:42:29.891Z,81.50
2023-05-03T03:43:33.910Z,81.85
2023-05-03T03:44:36.526Z,81.86
2023-05-03T03:45:38.594Z,81.57
2023-05-03T03:46:41.037Z,81.14
2023-05-03T03:47:43.331Z,81.15
2023-05-03T03:48:45.763Z,81.50
2023-05-03T03:49:47.675Z,81.90
2023-05-03T03:50:50.718Z,81.23
2023-05-03T03:51:52.833Z,81.05
2023-05-03T03:52:54.839Z,81.47
2023-05-03T03:53:57.778Z,80.35
2023-05-03T03:55:00.065Z,80.47
2023-05-03T03:56:02.027Z,80.23
2023-05-03T03:57:05.079Z,80.01
2023-05-03T03:58:07.937Z,80.68
2023-05-03T03:59:10.705Z,80.21
2023-05-03T04:00:13.399Z,80.05
2023-05-03T04:01:16.897Z,80.34
2023-05-03T04:02:18.926Z,80.63
2023-05-03T04:03:20.986Z,80.58
2023-05-03T04:04:23.429Z,79.48
2023-05-03T04:05:25.762Z,79.76
2023-05-03T04:06:29.084Z,80.44
2023-05-03T04:07:31.434Z,78.92
2023-05-03T04:08:33.726Z,79.12
2023-05-03T04:09:35.864Z,79.64
2023-05-03T04:10:37.823Z,79.01
2023-05-03T04:11:40.585Z,78.29
2023-05-03T04:12:42.619Z,78.27
2023-05-03T04:13:44.534Z,78.40
2023-05-03T04:14:47.040Z,78.68
2023-05-03T04:15:49.342Z,79.16
2023-05-03T04:16:51.776Z,79.59
2023-05-03T04:17:53.660Z,79.62
2023-05-03T04:18:56.080Z,78.53
2023-05-03T04:19:57.947Z,79.37
2023-05-03T04:21:00.808Z,79.20
2023-05-03T04:22:03.948Z,78.92
2023-05-03T04:23:05.858Z,78.59
2023-05-03T04:24:09.103Z,79.26
2023-05-03T04:25:14.098Z,79.08
2023-05-03T04:26:30.135Z,78.63
2023-05-03T04:27:35.428Z,78.02
2023-05-03T04:28:38.999Z,79.08
2023-05-03T04:29:41.605Z,78.37
2023-05-03T04:30:44.496Z,78.06
2023-05-03T04:31:47.603Z,78.38
2023-05-03T04:32:54.505Z,77.88
2023-05-03T04:33:58.019Z,78.55
2023-05-03T04:35:00.383Z,78.77
2023-05-03T04:36:02.785Z,79.35
2023-05-03T04:37:05.276Z,78.75
2023-05-03T04:38:09.015Z,78.69
2023-05-03T04:39:12.109Z,78.70
2023-05-03T04:40:14.227Z,78.49
2023-05-03T04:41:17.738Z,78.63
2023-05-03T04:42:20.579Z,78.94
2023-05-03T04:43:23.283Z,78.63
2023-05-03T04:44:26.179Z,78.93
2023-05-03T04:45:28.494Z,79.20
2023-05-03T04:46:31.557Z,79.00
2023-05-03T04:47:33.661Z,79.07
2023-05-03T04:48:36.315Z,80.65
2023-05-03T04:49:39.901Z,81.08
2023-05-03T04:50:41.810Z,79.52
2023-05-03T04:51:43.918Z,79.14
2023-05-03T04:52:45.818Z,78.45
2023-05-03T04:53:47.904Z,79.05
2023-05-03T04:54:50.124Z,78.58
2023-05-03T04:55:52.237Z,78.81
2023-05-03T04:56:55.584Z,78.65
2023-05-03T04:57:57.803Z,79.60
2023-05-03T04:59:00.177Z,80.62
2023-05-03T05:00:02.350Z,80.69
2023-05-03T05:01:04.685Z,80.46
2023-05-03T05:02:07.702Z,79.95
2023-05-03T05:03:10.028Z,80.53
2023-05-03T05:04:12.279Z,80.10
2023-05-03T05:05:14.719Z,80.16
2023-05-03T05:06:16.881Z,81.11
2023-05-03T05:07:19.573Z,81.54
2023-05-03T05:08:21.611Z,81.46
2023-05-03T05:09:28.917Z,80.36
2023-05-03T05:10:31.054Z,79.50
2023-05-03T05:11:33.279Z,79.30
2023-05-03T05:12:35.381Z,79.74
2023-05-03T05:13:39.372Z,79.57
2023-05-03T05:14:41.504Z,79.38
2023-05-03T05:15:43.524Z,79.12
2023-05-03T05:16:46.263Z,78.16
2023-05-03T05:17:49.495Z,77.55
2023-05-03T05:18:51.988Z,77.58
2023-05-03T05:19:56.200Z,78.48
2023-05-03T05:20:58.056Z,79.04
2023-05-03T05:22:00.357Z,79.45
2023-05-03T05:23:02.687Z,77.61
2023-05-03T05:24:05.528Z,76.49
2023-05-03T05:25:08.355Z,76.35
2023-05-03T05:26:10.413Z,76.41
2023-05-03T05:27:12.950Z,76.09
2023-05-03T05:28:15.057Z,74.69
2023-05-03T05:29:17.099Z,74.88
2023-05-03T05:30:19.491Z,73.36
2023-05-03T05:31:22.031Z,74.32
2023-05-03T05:32:23.929Z,74.24
2023-05-03T05:33:25.901Z,75.07
2023-05-03T05:34:28.087Z,72.55
2023-05-03T05:35:30.363Z,72.77
2023-05-03T05:36:32.332Z,73.33
2023-05-03T05:37:34.582Z,73.46
2023-05-03T05:38:37.139Z,74.37
2023-05-03T05:39:39.381Z,73.28
2023-05-03T05:40:41.533Z,72.87
2023-05-03T05:41:43.393Z,73.00
2023-05-03T05:42:46.322Z,73.81
2023-05-03T05:43:48.296Z,74.50
2023-05-03T05:44:52.350Z,74.27
2023-05-03T05:45:54.793Z,74.52
2023-05-03T05:46:57.017Z,73.77
2023-05-03T05:47:59.583Z,73.17
2023-05-03T05:49:01.452Z,72.60
2023-05-03T05:50:09.722Z,73.16
2023-05-03T05:51:19.042Z,72.68
2023-05-03T05:52:22.033Z,73.17
2023-05-03T05:53:24.899Z,71.76
2023-05-03T05:54:28.624Z,71.79
2023-05-03T05:55:32.885Z,70.72
2023-05-03T05:56:35.677Z,70.52
2023-05-03T05:57:37.608Z,72.28
2023-05-03T05:58:39.616Z,70.05
2023-05-03T05:59:41.863Z,69.33
2023-05-03T06:00:44.328Z,70.00
2023-05-03T06:01:47.984Z,70.63
2023-05-03T06:02:50.434Z,70.08
2023-05-03T06:03:52.851Z,70.53
2023-05-03T06:04:55.264Z,70.58
2023-05-03T06:05:57.489Z,71.15
2023-05-03T06:07:00.402Z,71.40
2023-05-03T06:08:02.343Z,72.40
2023-05-03T06:09:13.211Z,71.45
2023-05-03T06:10:19.377Z,70.96
2023-05-03T06:11:21.680Z,70.14
2023-05-03T06:12:24.395Z,70.82
2023-05-03T06:13:26.427Z,67.82
2023-05-03T06:14:28.384Z,67.69
2023-05-03T06:15:30.421Z,68.17
2023-05-03T06:16:32.576Z,68.33
2023-05-03T06:17:36.099Z,68.27
2023-05-03T06:18:39.116Z,70.00
2023-05-03T06:19:43.158Z,70.19
2023-05-03T06:20:50.402Z,70.75
2023-05-03T06:21:52.561Z,70.83
2023-05-03T06:22:55.140Z,71.60
2023-05-03T06:23:57.295Z,71.86
2023-05-03T06:24:59.892Z,69.77
2023-05-03T06:26:01.864Z,71.00
2023-05-03T06:27:04.099Z,69.25
2023-05-03T06:28:08.167Z,68.44
2023-05-03T06:29:10.297Z,68.81
2023-05-03T06:30:12.910Z,69.30
2023-05-03T06:31:15.085Z,69.14
2023-05-03T06:32:19.042Z,70.37
2023-05-03T06:33:21.378Z,68.00
2023-05-03T06:34:23.420Z,68.12
2023-05-03T06:35:26.128Z,66.80
2023-05-03T06:36:29.888Z,67.11
2023-05-03T06:37:32.259Z,68.12
2023-05-03T06:38:34.903Z,68.28
2023-05-03T06:39:38.806Z,66.87
2023-05-03T06:40:41.470Z,68.51
2023-05-03T06:41:43.496Z,68.48
2023-05-03T06:42:45.558Z,67.48
2023-05-03T06:43:47.759Z,67.19
2023-05-03T06:44:49.619Z,67.14
2023-05-03T06:45:55.241Z,67.25
2023-05-03T06:46:57.121Z,67.19
2023-05-03T06:47:59.268Z,67.16
2023-05-03T06:49:01.872Z,68.41
2023-05-03T06:50:04.427Z,68.71
2023-05-03T06:51:07.206Z,67.84
2023-05-03T06:52:11.701Z,67.90
2023-05-03T06:53:13.830Z,68.53
2023-05-03T06:54:16.211Z,68.43
2023-05-03T06:55:18.387Z,68.56
2023-05-03T06:56:20.476Z,68.27
2023-05-03T06:57:22.869Z,67.68
2023-05-03T06:58:24.714Z,67.73
2023-05-03T06:59:26.962Z,65.83
2023-05-03T07:00:28.797Z,66.17
2023-05-03T07:01:33.964Z,65.89
2023-05-03T07:02:35.924Z,67.13
2023-05-03T07:03:40.120Z,65.85
2023-05-03T07:04:43.983Z,66.20
2023-05-03T07:05:47.155Z,66.26
2023-05-03T07:07:57.394Z,65.92
2023-05-03T07:08:59.193Z,66.04
2023-05-03T07:10:01.657Z,65.79
2023-05-03T07:11:04.299Z,66.32
2023-05-03T07:12:06.211Z,65.41
2023-05-03T07:13:08.088Z,64.17
2023-05-03T07:14:10.118Z,62.82
2023-05-03T07:15:12.302Z,61.39
2023-05-03T07:16:14.144Z,60.66
2023-05-03T07:17:16.152Z,62.10
2023-05-03T07:18:18.083Z,61.67
2023-05-03T07:19:20.019Z,61.69
2023-05-03T07:20:22.270Z,60.30
2023-05-03T07:21:24.371Z,60.47
2023-05-03T07:22:26.592Z,61.23
2023-05-03T07:23:28.455Z,59.95
2023-05-03T07:24:30.390Z,60.57
2023-05-03T07:25:33.597Z,57.88
2023-05-03T07:26:35.454Z,58.63
2023-05-03T07:27:37.318Z,59.21
2023-05-03T07:28:39.165Z,58.99
2023-05-03T07:29:41.038Z,61.49
2023-05-03T07:30:43.299Z,60.00
2023-05-03T07:31:45.763Z,60.37
2023-05-03T07:32:47.695Z,60.24
2023-05-03T07:33:49.643Z,60.26
2023-05-03T07:34:51.603Z,59.44
2023-05-03T07:35:53.942Z,57.84
2023-05-03T07:36:56.836Z,58.83
2023-05-03T07:37:58.903Z,59.08
2023-05-03T07:39:00.774Z,59.46
2023-05-03T07:40:02.743Z,58.49
2023-05-03T07:41:05.249Z,57.01
2023-05-03T07:42:07.654Z,57.72
2023-05-03T07:43:10.360Z,57.93
2023-05-03T07:44:12.215Z,57.75
2023-05-03T07:45:14.891Z,56.64
2023-05-03T07:46:17.165Z,56.20
2023-05-03T07:47:19.288Z,53.60
2023-05-03T07:48:21.286Z,55.12
2023-05-03T07:49:23.069Z,55.07
2023-05-03T07:50:25.396Z,54.65
2023-05-03T07:51:28.824Z,53.96
2023-05-03T07:52:30.977Z,53.49
2023-05-03T07:53:35.448Z,52.62
2023-05-03T07:54:37.346Z,52.40
2023-05-03T07:55:39.150Z,52.12
2023-05-03T07:56:41.257Z,50.46
2023-05-03T07:57:43.471Z,52.37
2023-05-03T07:58:48.712Z,52.19
2023-05-03T07:59:52.919Z,52.68
2023-05-03T08:00:54.827Z,52.80
2023-05-03T08:01:58.202Z,51.56
2023-05-03T08:03:03.922Z,50.39
2023-05-03T08:04:06.356Z,50.51
2023-05-03T08:05:09.971Z,50.11
2023-05-03T08:06:12.388Z,50.35
2023-05-03T08:07:18.040Z,50.45
2023-05-03T08:08:19.920Z,50.83
2023-05-03T08:09:21.845Z,49.25
2023-05-03T08:10:23.855Z,50.61
2023-05-03T08:11:27.693Z,50.59
2023-05-03T08:12:30.052Z,49.69
2023-05-03T08:13:31.892Z,51.37
2023-05-03T08:14:33.969Z,49.93
2023-05-03T08:15:35.877Z,49.84
2023-05-03T08:16:37.828Z,49.01
2023-05-03T08:17:45.026Z,49.90
2023-05-03T08:18:47.062Z,49.08
2023-05-03T08:19:49.774Z,49.37
2023-05-03T08:20:51.709Z,50.21
2023-05-03T08:21:55.717Z,49.83
2023-05-03T08:22:57.862Z,50.19
2023-05-03T08:23:59.745Z,50.78
2023-05-03T08:25:01.614Z,49.17
2023-05-03T08:26:04.318Z,49.47
2023-05-03T08:27:08.039Z,49.94
2023-05-03T08:28:10.219Z,49.71
2023-05-03T08:29:12.163Z,51.02
2023-05-03T08:30:14.145Z,50.35
2023-05-03T08:31:16.702Z,50.15
2023-05-03T08:32:19.614Z,50.55
2023-05-03T08:33:21.763Z,50.34
2023-05-03T08:34:23.711Z,49.54
2023-05-03T08:35:28.031Z,49.05
2023-05-03T08:36:31.983Z,48.11
2023-05-03T08:37:40.452Z,49.47
2023-05-03T08:38:42.703Z,49.64
2023-05-03T08:39:44.867Z,49.09
2023-05-03T08:40:48.543Z,50.30
2023-05-03T08:41:51.083Z,49.55
2023-05-03T08:42:55.332Z,50.30
2023-05-03T08:43:58.730Z,49.50
2023-05-03T08:45:00.582Z,49.88
2023-05-03T08:46:03.232Z,49.56
2023-05-03T08:47:06.581Z,49.77
2023-05-03T08:48:08.710Z,50.46
2023-05-03T08:49:12.728Z,50.32
2023-05-03T08:50:15.687Z,49.63
2023-05-03T08:51:18.358Z,48.42
2023-05-03T08:52:21.244Z,49.00
2023-05-03T08:53:23.578Z,49.42
2023-05-03T08:54:26.764Z,49.75
2023-05-03T08:55:28.575Z,48.65
2023-05-03T08:56:34.627Z,48.20
2023-05-03T08:57:36.887Z,47.76
2023-05-03T08:58:39.073Z,48.88
2023-05-03T08:59:51.336Z,48.58
2023-05-03T09:00:53.212Z,48.70
2023-05-03T09:01:55.459Z,49.22
2023-05-03T09:02:57.465Z,49.56
2023-05-03T09:03:59.884Z,48.89
2023-05-03T09:05:02.485Z,48.81
2023-05-03T09:06:20.168Z,49.01
2023-05-03T09:07:22.359Z,48.40
2023-05-03T09:08:24.230Z,48.39
2023-05-03T09:09:32.375Z,48.24
2023-05-03T09:10:38.970Z,48.88
2023-05-03T09:11:40.948Z,49.44
2023-05-03T09:12:45.629Z,49.53
2023-05-03T09:13:47.487Z,48.70
2023-05-03T09:14:50.465Z,48.21
2023-05-03T09:15:57.749Z,47.54
2023-05-03T09:17:16.494Z,47.02
2023-05-03T09:18:19.835Z,46.46
2023-05-03T09:19:21.936Z,46.13
2023-05-03T09:20:35.094Z,44.60
2023-05-03T09:21:38.609Z,44.88
2023-05-03T09:22:52.198Z,43.71
2023-05-03T09:23:54.175Z,43.87
2023-05-03T09:24:57.860Z,44.49
2023-05-03T09:26:00.310Z,44.54
2023-05-03T09:27:17.508Z,44.03
2023-05-03T09:28:20.657Z,43.93
2023-05-03T09:29:31.093Z,42.54
2023-05-03T09:30:33.043Z,43.63
2023-05-03T09:31:36.320Z,42.55
2023-05-03T09:32:48.438Z,43.89
2023-05-03T09:33:50.371Z,43.50
2023-05-03T09:35:08.391Z,43.53
2023-05-03T09:36:11.562Z,44.78
2023-05-03T09:37:16.454Z,44.35
2023-05-03T09:38:32.729Z,44.12
2023-05-03T09:39:36.866Z,43.79
2023-05-03T09:40:48.107Z,44.18
2023-05-03T09:41:50.109Z,44.55
2023-05-03T09:43:09.145Z,44.06
2023-05-03T09:44:11.492Z,44.00
2023-05-03T09:45:28.898Z,44.20
2023-05-03T09:46:30.884Z,44.14
2023-05-03T09:47:49.412Z,44.45
2023-05-03T09:48:54.290Z,44.59
2023-05-03T09:49:56.518Z,45.99
2023-05-03T09:50:58.334Z,45.78
2023-05-03T09:52:01.551Z,45.62
2023-05-03T09:53:05.158Z,45.25
2023-05-03T09:54:07.342Z,45.17
2023-05-03T09:55:09.899Z,47.58
2023-05-03T09:56:15.202Z,46.72
2023-05-03T09:57:17.477Z,47.01
2023-05-03T09:58:20.776Z,46.56
2023-05-03T09:59:22.828Z,46.56
2023-05-03T10:00:25.574Z,44.70
2023-05-03T10:01:28.036Z,44.11
2023-05-03T10:02:32.623Z,44.21
2023-05-03T10:03:53.008Z,44.24
2023-05-03T10:04:59.012Z,44.51
2023-05-03T10:06:04.875Z,45.44
2023-05-03T10:07:12.693Z,45.67
2023-05-03T10:08:40.559Z,45.58
2023-05-03T10:09:48.764Z,45.78
2023-05-03T10:10:54.733Z,45.67
2023-05-03T10:12:00.369Z,45.37
2023-05-03T10:13:03.729Z,46.49
2023-05-03T10:14:07.733Z,46.17
2023-05-03T10:15:13.433Z,46.18
2023-05-03T10:16:24.015Z,45.56
2023-05-03T10:17:47.233Z,45.16
2023-05-03T10:19:12.883Z,44.76
2023-05-03T10:20:39.228Z,45.44
2023-05-03T10:22:06.589Z,44.98
2023-05-03T10:23:10.909Z,44.50
2023-05-03T10:24:16.875Z,44.02
2023-05-03T10:25:18.754Z,45.46
2023-05-03T10:26:22.496Z,44.29
2023-05-03T10:27:24.570Z,45.59
2023-05-03T10:28:26.794Z,44.60
2023-05-03T10:29:31.710Z,46.13
2023-05-03T10:30:40.582Z,46.32
2023-05-03T10:31:47.293Z,45.94
2023-05-03T10:32:49.427Z,44.16
2023-05-03T10:33:52.136Z,43.87
2023-05-03T10:35:03.690Z,44.63
2023-05-03T10:36:07.743Z,45.18
2023-05-03T10:37:11.526Z,46.29
2023-05-03T10:38:18.172Z,45.32
2023-05-03T10:39:21.392Z,45.50
2023-05-03T10:40:23.938Z,46.45
2023-05-03T10:41:27.261Z,46.00
2023-05-03T10:42:30.971Z,45.79
2023-05-03T10:43:35.845Z,45.82
2023-05-03T10:44:51.737Z,46.18
2023-05-03T10:45:53.601Z,45.39
2023-05-03T10:46:55.643Z,45.69
2023-05-03T10:48:28.487Z,46.32
2023-05-03T10:49:30.316Z,47.10
2023-05-03T10:50:32.709Z,47.38
2023-05-03T10:51:37.316Z,47.26
2023-05-03T10:52:39.323Z,46.92
2023-05-03T10:53:42.730Z,46.88
2023-05-03T10:54:44.572Z,46.51
2023-05-03T10:56:13.124Z,46.95
2023-05-03T10:57:15.257Z,47.50
2023-05-03T10:58:17.222Z,47.42
2023-05-03T10:59:19.334Z,46.48
2023-05-03T11:00:32.847Z,46.60
2023-05-03T11:01:36.742Z,47.82
2023-05-03T11:02:50.906Z,46.02
2023-05-03T11:04:23.113Z,46.71
2023-05-03T11:05:28.536Z,45.70
2023-05-03T11:06:34.800Z,45.18
2023-05-03T11:07:37.557Z,45.21
2023-05-03T11:08:39.434Z,44.07
2023-05-03T11:09:41.826Z,45.06
2023-05-03T11:10:49.056Z,47.14
2023-05-03T11:11:51.152Z,44.43
2023-05-03T11:12:53.260Z,44.48
2023-05-03T11:13:55.162Z,44.76
2023-05-03T11:14:57.205Z,44.20
2023-05-03T11:15:59.063Z,43.74
2023-05-03T11:17:01.935Z,43.79
2023-05-03T11:18:06.706Z,44.04
2023-05-03T11:19:09.222Z,44.28
2023-05-03T11:20:11.906Z,43.78
2023-05-03T11:21:14.478Z,44.88
2023-05-03T11:22:16.320Z,45.01
2023-05-03T11:23:19.279Z,45.41
2023-05-03T11:24:21.168Z,45.45
2023-05-03T11:25:23.119Z,46.26
2023-05-03T11:26:26.346Z,46.76
2023-05-03T11:27:28.649Z,50.20
2023-05-03T11:28:30.904Z,52.79
2023-05-03T11:29:32.720Z,53.29
2023-05-03T11:30:35.992Z,54.09
2023-05-03T11:31:37.913Z,52.60
2023-05-03T11:32:40.766Z,51.70
2023-05-03T11:33:43.253Z,45.77
2023-05-03T11:34:46.165Z,45.23
2023-05-03T11:35:48.010Z,45.35
2023-05-03T11:36:50.112Z,45.78
2023-05-03T11:37:51.950Z,45.76
2023-05-03T11:38:54.100Z,45.88
2023-05-03T11:39:55.944Z,46.03
2023-05-03T11:40:58.109Z,46.15
2023-05-03T11:42:06.343Z,47.98
2023-05-03T11:43:08.271Z,48.09
2023-05-03T11:44:16.944Z,48.50
2023-05-03T11:45:44.823Z,51.61
2023-05-03T11:46:48.271Z,55.12
2023-05-03T11:47:51.192Z,56.11
2023-05-03T11:48:53.105Z,56.50
2023-05-03T11:49:56.812Z,58.14
2023-05-03T11:50:58.710Z,59.19
2023-05-03T11:52:01.116Z,60.47
2023-05-03T11:53:03.036Z,57.89
2023-05-03T11:54:17.050Z,57.46
2023-05-03T11:55:26.396Z,58.65
2023-05-03T11:56:28.235Z,59.23
2023-05-03T11:57:32.048Z,58.96
2023-05-03T11:58:33.915Z,61.54
2023-05-03T11:59:38.903Z,60.81
2023-05-03T12:00:48.606Z,60.46
2023-05-03T12:01:53.579Z,56.36
2023-05-03T12:02:59.863Z,55.04
2023-05-03T12:04:05.831Z,57.59
2023-05-03T12:05:10.371Z,59.64
2023-05-03T12:06:13.585Z,62.10
2023-05-03T12:07:19.624Z,64.49
2023-05-03T12:08:34.480Z,62.87
2023-05-03T12:09:39.903Z,64.02
2023-05-03T12:10:42.830Z,64.30
2023-05-03T12:11:47.830Z,64.35
2023-05-03T12:13:00.521Z,64.76
2023-05-03T12:14:03.467Z,64.37
2023-05-03T12:15:07.972Z,63.59
2023-05-03T12:16:14.101Z,65.20
2023-05-03T12:17:38.318Z,65.00
2023-05-03T12:18:55.900Z,64.86
2023-05-03T12:20:51.232Z,63.82
2023-05-03T12:22:04.052Z,63.72
2023-05-03T12:23:10.869Z,62.90
2023-05-03T12:24:20.119Z,63.61
2023-05-03T12:25:26.212Z,63.26
2023-05-03T12:26:28.912Z,63.06
2023-05-03T12:27:32.644Z,63.43
2023-05-03T12:28:35.212Z,62.14
2023-05-03T12:29:37.434Z,61.78
2023-05-03T12:30:40.775Z,61.78
2023-05-03T12:31:44.211Z,61.60
2023-05-03T12:32:46.780Z,63.28
2023-05-03T12:34:05.914Z,61.34
2023-05-03T12:35:14.080Z,60.56
2023-05-03T12:36:17.002Z,59.83
2023-05-03T12:37:22.217Z,60.84
2023-05-03T12:38:25.278Z,62.01
2023-05-03T12:39:27.720Z,59.80
2023-05-03T12:40:34.379Z,60.46
2023-05-03T12:42:43.312Z,61.26
2023-05-03T12:43:45.963Z,61.87
2023-05-03T12:44:48.353Z,63.42
2023-05-03T12:46:01.063Z,65.00
2023-05-03T12:47:16.788Z,63.98
2023-05-03T12:48:26.049Z,64.40
2023-05-03T12:49:28.286Z,62.90
2023-05-03T12:50:31.952Z,62.75
2023-05-03T12:51:35.258Z,61.80
2023-05-03T12:52:38.927Z,61.95
2023-05-03T12:53:41.253Z,62.84
2023-05-03T12:54:43.458Z,63.04
2023-05-03T12:55:51.332Z,62.97
2023-05-03T12:56:55.560Z,63.28
2023-05-03T12:58:24.354Z,61.70
2023-05-03T12:59:40.367Z,62.23
2023-05-03T13:00:54.153Z,61.71
2023-05-03T13:03:12.976Z,61.47
2023-05-03T13:03:32.797Z,60.43
2023-05-03T13:05:10.953Z,61.24
2023-05-03T13:05:58.569Z,61.85
2023-05-03T13:07:01.219Z,62.59
2023-05-03T13:08:09.068Z,64.24
2023-05-03T13:09:19.237Z,64.96
2023-05-03T13:10:22.396Z,64.18
2023-05-03T13:11:25.455Z,63.55
2023-05-03T13:12:28.074Z,64.13
2023-05-03T13:13:30.291Z,64.53
2023-05-03T13:14:32.627Z,65.14
2023-05-03T13:15:36.574Z,65.17
2023-05-03T13:16:40.850Z,64.90
2023-05-03T13:17:45.295Z,65.40
2023-05-03T13:18:48.896Z,64.91
2023-05-03T13:19:52.309Z,64.85
2023-05-03T13:20:54.121Z,65.91
2023-05-03T13:21:55.952Z,66.70
2023-05-03T13:22:58.304Z,66.95
2023-05-03T13:24:00.495Z,66.75
2023-05-03T13:25:03.411Z,66.56
2023-05-03T13:26:07.039Z,66.56
2023-05-03T13:27:10.536Z,66.40
2023-05-03T13:28:12.627Z,66.18
2023-05-03T13:29:14.794Z,66.47
2023-05-03T13:30:16.720Z,66.41
2023-05-03T13:31:18.904Z,67.12
2023-05-03T13:32:20.856Z,67.55
2023-05-03T13:33:22.799Z,67.81
2023-05-03T13:34:24.989Z,67.75
2023-05-03T13:35:26.867Z,67.76
2023-05-03T13:36:29.518Z,66.83
2023-05-03T13:37:31.445Z,66.92
2023-05-03T13:38:33.959Z,66.74
2023-05-03T13:39:36.125Z,66.97
2023-05-03T13:40:38.060Z,67.07
2023-05-03T13:41:42.133Z,67.00
2023-05-03T13:42:44.120Z,66.78
2023-05-03T13:43:47.530Z,66.40
2023-05-03T13:44:49.731Z,66.45
2023-05-03T13:45:52.944Z,67.05
2023-05-03T13:46:55.715Z,66.76
2023-05-03T13:48:10.475Z,66.35
2023-05-03T13:49:19.374Z,66.62
2023-05-03T13:50:21.718Z,66.95